Rumley, Texas
Current Conditions -  °F | °C
As of 6:35 AM on Monday 20 Oct 2014 (Local Time) from KLZZ Reporting Station
Haze Haze  
Wind Chill: 16°   Ceiling: 700
Heat Index: 16°   Visibility: 5mi
Dew Point: 15°   Wind: 0mph
Humidity: 97%   Direction: NA
Pressure: 30.06"   Gusts: NA
Location:  31.0791°N, 98.0007°W
Report Text: KLZZ 201135Z AUTO 00000KT 5SM BR BKN007 16/15 A3006 RMK AO2 T01580153
Loading
Personal Weather Stations






























Interactive Weather Map
Tropical Storm Tracking
New forecast layout! Learn more

10-Day Weather Forecast

Advertisements
Track Severe Weather on mobile